Aeroporto :
LOGIN :

Iscrizione | Disclaimer

   EN    FR    IT 

 










Sommario :    VFR   VFR Marginale   IFR   IFR Intensivo   IFR Molto Intensivo
Visibilità : 
Base nubi : 
>= 8 km
>= 3000ft
5 / 8 km
1000 / 3000 ft
1500m / 5 km
500 / 1000 ft
800 / 1500m
200 / 500 ft
< 800m
< 200 ft
Simboli :   Temporali  Nebbia  Neve Forte  Precipitazioni Forti  Vento > 20 kt
SIGMETs :   Varie  Temporali  Ghiacco  Turbolenza  Onda orograficha  Ceneri Vulcaniche






- Altitudine del aeroporto : 90 ft
- Codice IATA : NTE


LFRS - Nantes

ULTIMO METAR :
  • 182200Z AUTO 25010KT 9999 FEW017 SCT022 BKN190 09/07 Q1028 NOSIG

METARs OBSOLETI :
  • 182130Z AUTO 25010KT 220V280 9999 FEW016 BKN023 BKN033 09/08 Q1028 NOSIG
  • 182100Z AUTO 23010KT 9999 FEW021/// BKN027/// BKN052/// ///TCU 09/07 Q1028 BECMG SCT030
  • 182030Z AUTO 23008KT 9999 SCT023 SCT033 BKN070 08/06 Q1029 NOSIG
  • 182000Z AUTO 23008KT 9999 FEW025 08/06 Q1029 TEMPO SCT025TCU
  • 181930Z AUTO 23009KT 9999 FEW028 09/06 Q1029 TEMPO SCT025TCU

TAF TAF LFRS
Valido dal 18 a 18 ore il 20 a 00 ore UTC


181700Z 1818/1924 25010KT 9999 SCT030
PROB30
TEMPO 1818/1821 -SHRA SCT025TCU
TEMPO 1900/1902 27015G25KT 4000 SHRA BKN018TCU
PROB40
TEMPO 1910/1915 -SHRA BKN014
ATIS : +33 2 40 05 12 74



MetMap, La meteo Aeronautica in un colpo d'occhio ! - Copyright ORBIFLY Dicembre 2007 - Disclaimer

ORBIFLY MET'MAP TEAM :

Programmazione e sviluppo : Alexandra Zaïnal
Concezione : Baudouin d'Aumeries
Aiuto per la programmazione : Marc-Olivier Méhu
Supporto tecnico e logistico : Manuel Goepfert
Aiuto per la traduzione : Arnaldo La Scala

Contatto : metmap@orbifly.com




FONTI E CREDITI :

   NOAA